createdAt,value
2017-07-19T00:01:45.272Z,21.70
2017-07-19T00:04:12.774Z,22.33
2017-07-19T00:06:41.040Z,25.97
2017-07-19T00:09:09.463Z,25.37
2017-07-19T00:11:36.954Z,32.80
2017-07-19T00:14:04.569Z,27.40
2017-07-19T00:16:32.162Z,23.77
2017-07-19T00:18:59.667Z,24.60
2017-07-19T00:21:27.931Z,17.00
2017-07-19T00:23:55.457Z,20.40
2017-07-19T00:26:22.993Z,28.23
2017-07-19T00:28:50.487Z,18.23
2017-07-19T00:31:18.018Z,24.70
2017-07-19T00:33:45.521Z,21.73
2017-07-19T00:36:13.031Z,21.53
2017-07-19T00:38:40.530Z,20.37
2017-07-19T00:41:08.059Z,19.20
2017-07-19T00:43:35.587Z,21.83
2017-07-19T00:46:03.715Z,20.87
2017-07-19T00:48:31.305Z,21.63
2017-07-19T00:50:59.597Z,21.50
2017-07-19T00:53:27.854Z,26.03
2017-07-19T00:55:55.432Z,24.57
2017-07-19T00:58:22.938Z,36.30
2017-07-19T01:00:50.483Z,34.13
2017-07-19T01:03:18.000Z,39.27
2017-07-19T01:05:46.284Z,40.60
2017-07-19T01:08:14.570Z,40.13
2017-07-19T01:10:42.093Z,33.63
2017-07-19T01:13:09.583Z,47.03
2017-07-19T01:15:37.833Z,32.57
2017-07-19T01:18:05.343Z,37.20
2017-07-19T01:20:32.895Z,31.87
2017-07-19T01:23:00.380Z,29.07
2017-07-19T01:25:27.902Z,34.53
2017-07-19T01:27:55.399Z,33.47
2017-07-19T01:30:22.922Z,32.50
2017-07-19T01:32:50.458Z,31.40
2017-07-19T01:35:18.737Z,25.57
2017-07-19T01:37:47.007Z,24.63
2017-07-19T01:40:14.511Z,24.43
2017-07-19T01:42:41.989Z,31.47
2017-07-19T01:45:09.511Z,29.40
2017-07-19T01:47:37.021Z,22.70
2017-07-19T01:50:04.516Z,24.77
2017-07-19T01:52:32.992Z,23.93
2017-07-19T01:55:01.278Z,24.13
2017-07-19T01:57:28.785Z,25.00
2017-07-19T01:59:56.280Z,23.30
2017-07-19T02:02:24.539Z,23.37
2017-07-19T02:04:52.050Z,20.30
2017-07-19T02:07:19.523Z,17.40
2017-07-19T02:09:47.020Z,20.63
2017-07-19T02:12:14.534Z,21.40
2017-07-19T02:14:42.075Z,20.63
2017-07-19T02:17:09.626Z,23.57
2017-07-19T02:19:37.908Z,22.47
2017-07-19T02:22:05.396Z,20.13
2017-07-19T02:24:32.913Z,16.80
2017-07-19T02:27:01.201Z,18.07
2017-07-19T02:29:28.703Z,18.10
2017-07-19T02:31:56.192Z,21.20
2017-07-19T02:34:24.898Z,18.87
2017-07-19T02:36:53.177Z,18.57
2017-07-19T02:39:21.427Z,23.80
2017-07-19T02:41:49.018Z,21.50
2017-07-19T02:44:16.516Z,18.40
2017-07-19T02:46:44.063Z,22.53
2017-07-19T02:49:11.583Z,21.13
2017-07-19T02:51:39.856Z,28.53
2017-07-19T02:54:08.144Z,21.37
2017-07-19T02:56:36.397Z,20.13
2017-07-19T02:59:03.886Z,21.17
2017-07-19T03:01:31.395Z,18.60
2017-07-19T03:03:58.920Z,20.60
2017-07-19T03:06:26.401Z,19.63
2017-07-19T03:08:54.026Z,22.50
2017-07-19T03:11:21.955Z,18.80
2017-07-19T03:13:49.440Z,19.70
2017-07-19T03:16:17.715Z,21.70
2017-07-19T03:18:46.336Z,20.63
2017-07-19T03:21:13.828Z,24.57
2017-07-19T03:23:41.429Z,19.90
2017-07-19T03:26:08.934Z,22.00
2017-07-19T03:28:36.415Z,25.67
2017-07-19T03:31:03.936Z,25.20
2017-07-19T03:33:31.439Z,24.27
2017-07-19T03:35:59.742Z,21.63
2017-07-19T03:38:27.294Z,19.70
2017-07-19T03:40:55.560Z,20.83
2017-07-19T03:43:23.825Z,22.00
2017-07-19T03:45:51.349Z,20.40
2017-07-19T03:48:18.867Z,21.53
2017-07-19T03:50:46.430Z,32.53
2017-07-19T03:53:14.012Z,19.07
2017-07-19T03:55:41.494Z,27.07
2017-07-19T03:58:09.008Z,22.80
2017-07-19T04:00:36.513Z,21.60
2017-07-19T04:03:04.007Z,21.00
2017-07-19T04:05:33.038Z,22.00
2017-07-19T04:08:00.591Z,25.70
2017-07-19T04:10:28.091Z,19.50
2017-07-19T04:12:55.602Z,23.13
2017-07-19T04:15:23.106Z,23.60
2017-07-19T04:17:50.633Z,19.63
2017-07-19T04:20:18.138Z,23.43
2017-07-19T04:22:45.649Z,19.60
2017-07-19T04:25:13.179Z,20.90
2017-07-19T04:27:41.435Z,16.90
2017-07-19T04:30:08.951Z,18.50
2017-07-19T04:32:36.497Z,18.80
2017-07-19T04:35:04.054Z,22.07
2017-07-19T04:37:31.584Z,16.33
2017-07-19T04:39:59.992Z,19.00
2017-07-19T04:42:27.489Z,17.03
2017-07-19T04:44:55.019Z,19.03
2017-07-19T04:47:22.515Z,26.57
2017-07-19T04:49:50.066Z,20.60
2017-07-19T04:52:17.672Z,22.43
2017-07-19T04:54:45.989Z,24.50
2017-07-19T04:57:13.478Z,16.77
2017-07-19T04:59:41.007Z,16.50
2017-07-19T05:02:08.517Z,18.83
2017-07-19T05:04:35.995Z,18.80
2017-07-19T05:07:04.278Z,21.00
2017-07-19T05:09:31.805Z,16.17
2017-07-19T05:11:59.417Z,21.20
2017-07-19T05:14:26.937Z,18.00
2017-07-19T05:16:55.333Z,18.50
2017-07-19T05:19:22.843Z,17.20
2017-07-19T05:21:50.364Z,22.90
2017-07-19T05:24:17.894Z,19.60
2017-07-19T05:26:46.157Z,23.13
2017-07-19T05:29:13.750Z,10.63
2017-07-19T05:31:41.255Z,17.93
2017-07-19T05:34:08.773Z,18.17
2017-07-19T05:36:36.998Z,17.37
2017-07-19T05:39:04.514Z,14.53
2017-07-19T05:41:32.166Z,18.30
2017-07-19T05:43:59.689Z,19.33
2017-07-19T05:46:27.190Z,17.60
2017-07-19T05:48:55.066Z,11.70
2017-07-19T05:51:22.614Z,26.03
2017-07-19T05:53:50.114Z,17.50
2017-07-19T05:56:17.633Z,13.17
2017-07-19T05:58:45.167Z,13.33
2017-07-19T06:01:13.468Z,13.53
2017-07-19T06:03:40.956Z,14.50
2017-07-19T06:06:08.499Z,15.13
2017-07-19T06:08:35.993Z,12.07
2017-07-19T06:11:03.498Z,9.57
2017-07-19T06:13:31.021Z,8.47
2017-07-19T06:15:58.532Z,12.97
2017-07-19T06:18:26.012Z,12.30
2017-07-19T06:20:53.524Z,7.47
2017-07-19T06:23:21.776Z,9.03
2017-07-19T06:25:49.305Z,9.67
2017-07-19T06:28:16.845Z,9.20
2017-07-19T06:30:44.409Z,12.90
2017-07-19T06:33:12.154Z,6.80
2017-07-19T06:35:39.649Z,7.93
2017-07-19T06:38:07.131Z,7.97
2017-07-19T06:40:34.645Z,13.47
2017-07-19T06:43:02.482Z,12.37
2017-07-19T06:45:30.761Z,9.07
2017-07-19T06:47:59.066Z,10.73
2017-07-19T06:50:26.582Z,9.83
2017-07-19T06:52:54.096Z,16.40
2017-07-19T06:55:21.608Z,10.67
2017-07-19T06:57:49.872Z,10.53
2017-07-19T07:00:18.154Z,6.83
2017-07-19T07:02:45.666Z,8.77
2017-07-19T07:05:13.191Z,7.33
2017-07-19T07:07:41.468Z,11.33
2017-07-19T07:10:09.775Z,7.30
2017-07-19T07:12:37.302Z,11.37
2017-07-19T07:15:05.571Z,8.00
2017-07-19T07:17:33.865Z,7.23
2017-07-19T07:20:01.350Z,9.10
2017-07-19T07:22:28.895Z,9.97
2017-07-19T07:24:56.433Z,6.80
2017-07-19T07:27:24.684Z,10.50
2017-07-19T07:29:52.384Z,8.70
2017-07-19T07:32:19.945Z,9.13
2017-07-19T07:34:47.433Z,6.93
2017-07-19T07:37:14.918Z,7.90
2017-07-19T07:39:42.407Z,6.73
2017-07-19T07:42:10.695Z,7.60
2017-07-19T07:44:38.184Z,6.87
2017-07-19T07:47:05.706Z,8.63
2017-07-19T07:49:34.095Z,5.37
2017-07-19T07:52:01.581Z,8.10
2017-07-19T07:54:29.092Z,6.30
2017-07-19T07:56:57.431Z,6.83
2017-07-19T07:59:24.922Z,10.37
2017-07-19T08:01:53.200Z,8.83
2017-07-19T08:04:20.685Z,5.80
2017-07-19T08:06:48.172Z,6.20
2017-07-19T08:09:15.668Z,8.40
2017-07-19T08:11:43.172Z,17.27
2017-07-19T08:14:11.363Z,11.80
2017-07-19T08:16:38.853Z,5.20
2017-07-19T08:19:06.382Z,8.23
2017-07-19T08:21:33.901Z,6.23
2017-07-19T08:24:02.151Z,6.10
2017-07-19T08:26:29.798Z,10.83
2017-07-19T08:28:57.437Z,5.57
2017-07-19T08:31:24.915Z,7.63
2017-07-19T08:33:52.857Z,5.63
2017-07-19T08:36:20.436Z,6.17
2017-07-19T08:38:47.948Z,5.90
2017-07-19T08:41:16.208Z,13.00
2017-07-19T08:43:44.506Z,8.13
2017-07-19T08:46:11.990Z,9.33
2017-07-19T08:48:39.504Z,7.27
2017-07-19T08:51:07.785Z,3.67
2017-07-19T08:53:36.070Z,4.43
2017-07-19T08:56:17.439Z,6.27
2017-07-19T08:58:45.684Z,5.23
2017-07-19T09:01:13.174Z,9.93
2017-07-19T09:03:40.766Z,4.43
2017-07-19T09:06:08.243Z,4.10
2017-07-19T09:08:35.745Z,6.27
2017-07-19T09:11:03.240Z,4.10
2017-07-19T09:13:30.727Z,5.70
2017-07-19T09:15:58.386Z,6.63
2017-07-19T09:18:25.910Z,6.10
2017-07-19T09:20:55.186Z,5.77
2017-07-19T09:23:22.759Z,6.40
2017-07-19T09:25:51.004Z,5.03
2017-07-19T09:28:18.525Z,4.93
2017-07-19T09:30:46.043Z,5.90
2017-07-19T09:33:13.543Z,5.13
2017-07-19T09:35:41.055Z,5.67
2017-07-19T09:38:08.544Z,4.43
2017-07-19T09:40:36.067Z,4.80
2017-07-19T09:43:03.570Z,4.80
2017-07-19T09:45:31.095Z,8.10
2017-07-19T09:47:59.347Z,7.53
2017-07-19T09:50:26.881Z,5.37
2017-07-19T09:52:54.408Z,4.40
2017-07-19T09:55:22.668Z,4.03
2017-07-19T09:57:50.948Z,5.30
2017-07-19T10:00:19.240Z,4.47
2017-07-19T10:02:47.503Z,4.40
2017-07-19T10:05:15.783Z,4.70
2017-07-19T10:07:44.060Z,4.53
2017-07-19T10:10:12.326Z,5.20
2017-07-19T10:12:40.230Z,3.87
2017-07-19T10:15:07.758Z,3.67
2017-07-19T10:17:36.258Z,6.53
2017-07-19T10:20:03.813Z,4.10
2017-07-19T10:22:32.069Z,3.70
2017-07-19T10:24:59.582Z,5.13
2017-07-19T10:27:27.078Z,5.30
2017-07-19T10:29:54.548Z,3.67
2017-07-19T10:32:22.082Z,5.10
2017-07-19T10:34:49.578Z,5.70
2017-07-19T10:37:17.924Z,4.53
2017-07-19T10:39:45.577Z,5.60
2017-07-19T10:42:13.063Z,5.30
2017-07-19T10:44:40.542Z,4.63
2017-07-19T10:47:08.826Z,4.07
2017-07-19T10:49:36.313Z,5.73
2017-07-19T10:52:03.799Z,3.57
2017-07-19T10:54:31.329Z,5.63
2017-07-19T10:56:58.806Z,5.00
2017-07-19T10:59:26.313Z,5.23
2017-07-19T11:01:54.585Z,4.47
2017-07-19T11:04:22.822Z,6.60
2017-07-19T11:06:50.343Z,5.43
2017-07-19T11:09:17.876Z,4.40
2017-07-19T11:11:45.412Z,4.80
2017-07-19T11:14:12.936Z,7.47
2017-07-19T11:16:40.435Z,4.20
2017-07-19T11:19:08.127Z,5.60
2017-07-19T11:21:36.420Z,4.33
2017-07-19T11:24:03.912Z,9.60
2017-07-19T11:26:31.418Z,3.30
2017-07-19T11:28:58.949Z,4.93
2017-07-19T11:31:26.482Z,4.60
2017-07-19T11:33:53.963Z,6.40
2017-07-19T11:36:21.452Z,3.90
2017-07-19T11:38:49.743Z,7.30
2017-07-19T11:41:17.251Z,6.53
2017-07-19T11:43:44.761Z,3.20
2017-07-19T11:46:12.272Z,3.53
2017-07-19T11:48:39.776Z,9.30
2017-07-19T11:51:07.254Z,3.60
2017-07-19T11:53:34.788Z,6.30
2017-07-19T11:56:03.048Z,5.70
2017-07-19T11:58:31.338Z,3.60
2017-07-19T12:00:58.848Z,3.57
2017-07-19T12:03:26.332Z,5.37
2017-07-19T12:05:53.826Z,6.20
2017-07-19T12:08:21.847Z,8.70
2017-07-19T12:10:49.681Z,5.20
2017-07-19T12:13:17.210Z,4.90
2017-07-19T12:15:45.491Z,9.17
2017-07-19T12:18:13.058Z,4.57
2017-07-19T12:20:40.600Z,9.47
2017-07-19T12:23:08.877Z,4.83
2017-07-19T12:25:37.174Z,4.10
2017-07-19T12:28:04.998Z,4.93
2017-07-19T12:30:32.472Z,4.60
2017-07-19T12:33:01.632Z,3.27
2017-07-19T12:35:29.151Z,4.00
2017-07-19T12:37:56.704Z,4.30
2017-07-19T12:40:24.175Z,3.03
2017-07-19T12:42:51.665Z,8.07
2017-07-19T12:45:19.187Z,7.53
2017-07-19T12:47:46.729Z,3.60
2017-07-19T12:50:15.025Z,3.57
2017-07-19T12:52:42.534Z,4.27
2017-07-19T12:55:10.023Z,5.80
2017-07-19T12:57:38.292Z,3.67
2017-07-19T13:00:05.844Z,2.63
2017-07-19T13:02:34.119Z,4.60
2017-07-19T13:05:01.715Z,4.33
2017-07-19T13:07:29.199Z,5.30
2017-07-19T13:09:56.732Z,2.83
2017-07-19T13:12:24.207Z,9.20
2017-07-19T13:14:51.705Z,2.93
2017-07-19T13:17:19.231Z,11.40
2017-07-19T13:19:46.792Z,6.47
2017-07-19T13:22:14.289Z,5.50
2017-07-19T13:24:41.778Z,3.60
2017-07-19T13:27:09.368Z,5.33
2017-07-19T13:29:36.884Z,6.23
2017-07-19T13:32:05.164Z,3.37
2017-07-19T13:34:33.434Z,5.20
2017-07-19T13:37:00.928Z,5.20
2017-07-19T13:39:28.485Z,4.03
2017-07-19T13:41:55.953Z,3.90
2017-07-19T13:44:23.482Z,6.53
2017-07-19T13:46:51.103Z,4.03
2017-07-19T13:49:18.620Z,2.67
2017-07-19T13:51:46.117Z,8.30
2017-07-19T13:54:13.623Z,3.80
2017-07-19T13:56:41.140Z,4.77
2017-07-19T13:59:08.671Z,4.43
2017-07-19T14:01:36.175Z,2.60
2017-07-19T14:04:03.672Z,3.10
2017-07-19T14:06:31.164Z,3.67
2017-07-19T14:08:58.994Z,4.50
2017-07-19T14:11:26.531Z,2.60
2017-07-19T14:13:54.908Z,5.97
2017-07-19T14:16:23.219Z,9.27
2017-07-19T14:18:50.720Z,2.60
2017-07-19T14:21:18.266Z,3.30
2017-07-19T14:23:45.772Z,3.30
2017-07-19T14:26:13.275Z,7.93
2017-07-19T14:28:40.778Z,5.53
2017-07-19T14:31:08.306Z,3.93
2017-07-19T14:33:35.796Z,4.30
2017-07-19T14:36:03.282Z,2.67
2017-07-19T14:38:30.788Z,2.83
2017-07-19T14:40:58.318Z,3.13
2017-07-19T14:43:25.818Z,4.70
2017-07-19T14:45:53.323Z,3.00
2017-07-19T14:48:20.804Z,7.20
2017-07-19T14:50:48.319Z,2.97
2017-07-19T14:53:15.797Z,3.20
2017-07-19T14:55:43.291Z,2.63
2017-07-19T14:58:10.796Z,3.50
2017-07-19T15:00:38.307Z,5.47
2017-07-19T15:03:05.816Z,4.20
2017-07-19T15:05:33.501Z,3.17
2017-07-19T15:08:01.014Z,3.43
2017-07-19T15:10:28.525Z,3.90
2017-07-19T15:12:56.101Z,2.37
2017-07-19T15:15:23.631Z,3.27
2017-07-19T15:17:51.196Z,5.87
2017-07-19T15:20:18.699Z,3.70
2017-07-19T15:22:47.535Z,4.40
2017-07-19T15:25:15.101Z,3.13
2017-07-19T15:27:42.672Z,3.50
2017-07-19T15:30:10.254Z,7.60
2017-07-19T15:32:37.813Z,3.03
2017-07-19T15:35:05.544Z,2.80
2017-07-19T15:37:33.119Z,3.13
2017-07-19T15:40:00.664Z,3.13
2017-07-19T15:42:28.158Z,3.00
2017-07-19T15:44:55.727Z,5.03
2017-07-19T15:47:23.249Z,4.47
2017-07-19T15:49:50.731Z,2.90
2017-07-19T15:52:18.265Z,3.77
2017-07-19T15:54:45.778Z,2.77
2017-07-19T15:57:13.297Z,2.87
2017-07-19T15:59:40.834Z,3.63
2017-07-19T16:02:08.376Z,4.33
2017-07-19T16:04:35.888Z,3.00
2017-07-19T16:07:03.617Z,4.37
2017-07-19T16:09:31.624Z,3.77
2017-07-19T16:11:59.116Z,2.87
2017-07-19T16:14:26.992Z,3.20
2017-07-19T16:16:54.584Z,3.60
2017-07-19T16:19:22.142Z,3.90
2017-07-19T16:21:49.734Z,3.70
2017-07-19T16:24:17.320Z,2.70
2017-07-19T16:26:45.334Z,3.50
2017-07-19T16:29:12.825Z,3.43
2017-07-19T16:31:40.307Z,4.20
2017-07-19T16:34:07.873Z,2.83
2017-07-19T16:36:35.492Z,3.60
2017-07-19T16:39:03.155Z,4.40
2017-07-19T16:41:30.693Z,8.00
2017-07-19T16:43:58.219Z,3.67
2017-07-19T16:46:25.760Z,4.00
2017-07-19T16:48:54.204Z,8.23
2017-07-19T16:51:21.744Z,13.93
2017-07-19T16:53:49.241Z,3.33
2017-07-19T16:56:16.742Z,3.23
2017-07-19T16:58:45.294Z,6.17
2017-07-19T17:01:12.811Z,2.90
2017-07-19T17:03:40.366Z,2.83
2017-07-19T17:06:07.893Z,3.80
2017-07-19T17:08:35.493Z,5.17
2017-07-19T17:11:03.034Z,4.77
2017-07-19T17:13:30.503Z,4.63
2017-07-19T17:15:58.075Z,11.43
2017-07-19T17:18:25.670Z,2.97
2017-07-19T17:20:53.156Z,3.47
2017-07-19T17:23:20.673Z,3.57
2017-07-19T17:25:48.187Z,6.60
2017-07-19T17:28:15.699Z,4.43
2017-07-19T17:30:43.305Z,3.43
2017-07-19T17:33:11.593Z,3.93
2017-07-19T17:35:39.928Z,4.23
2017-07-19T17:38:07.599Z,9.37
2017-07-19T17:40:35.117Z,8.40
2017-07-19T17:43:02.652Z,7.40
2017-07-19T17:45:31.064Z,3.73
2017-07-19T17:47:58.606Z,4.67
2017-07-19T17:50:26.314Z,5.17
2017-07-19T17:52:53.859Z,3.53
2017-07-19T17:55:21.441Z,4.10
2017-07-19T17:57:48.951Z,6.57
2017-07-19T18:00:16.519Z,4.47
2017-07-19T18:02:44.010Z,7.03
2017-07-19T18:05:11.637Z,5.80
2017-07-19T18:07:39.196Z,5.40
2017-07-19T18:10:06.695Z,6.33
2017-07-19T18:12:34.212Z,7.97
2017-07-19T18:15:01.719Z,6.57
2017-07-19T18:17:29.307Z,3.80
2017-07-19T18:19:57.757Z,4.37
2017-07-19T18:22:25.286Z,5.40
2017-07-19T18:24:52.775Z,9.00
2017-07-19T18:27:20.300Z,5.63
2017-07-19T18:29:47.788Z,6.13
2017-07-19T18:32:15.304Z,4.90
2017-07-19T18:34:42.815Z,5.57
2017-07-19T18:37:10.429Z,4.30
2017-07-19T18:39:37.937Z,7.27
2017-07-19T18:42:05.461Z,8.43
2017-07-19T18:44:32.971Z,10.83
2017-07-19T18:47:00.544Z,5.70
2017-07-19T18:49:28.252Z,5.10
2017-07-19T18:51:55.745Z,7.97
2017-07-19T18:54:23.260Z,7.93
2017-07-19T18:56:50.825Z,10.63
2017-07-19T18:59:18.309Z,8.70
2017-07-19T19:01:45.833Z,7.73
2017-07-19T19:04:13.325Z,11.90
2017-07-19T19:06:40.829Z,8.47
2017-07-19T19:09:08.391Z,12.57
2017-07-19T19:11:35.881Z,9.50
2017-07-19T19:14:03.424Z,8.23
2017-07-19T19:16:30.943Z,11.63
2017-07-19T19:18:59.583Z,10.67
2017-07-19T19:21:27.129Z,6.50
2017-07-19T19:23:54.634Z,5.60
2017-07-19T19:26:22.175Z,5.87
2017-07-19T19:28:49.693Z,14.50
2017-07-19T19:31:18.142Z,14.70
2017-07-19T19:33:46.420Z,18.80
2017-07-19T19:36:13.968Z,17.37
2017-07-19T19:38:41.506Z,18.77
2017-07-19T19:41:09.123Z,8.63
2017-07-19T19:43:36.615Z,16.43
2017-07-19T19:46:04.109Z,8.40
2017-07-19T19:48:31.643Z,13.10
2017-07-19T19:50:59.166Z,13.97
2017-07-19T19:53:26.659Z,9.47
2017-07-19T19:55:54.178Z,14.50
2017-07-19T19:58:21.848Z,21.47
2017-07-19T20:00:49.374Z,14.47
2017-07-19T20:03:16.895Z,15.03
2017-07-19T20:05:44.399Z,16.50
2017-07-19T20:08:13.719Z,17.03
2017-07-19T20:10:41.227Z,16.33
2017-07-19T20:13:09.005Z,13.67
2017-07-19T20:15:36.553Z,12.50
2017-07-19T20:18:04.030Z,12.87
2017-07-19T20:20:31.563Z,15.03
2017-07-19T20:22:59.080Z,19.13
2017-07-19T20:25:26.582Z,13.10
2017-07-19T20:27:54.421Z,10.33
2017-07-19T20:30:21.935Z,16.53
2017-07-19T20:32:49.510Z,9.80
2017-07-19T20:35:17.910Z,12.30
2017-07-19T20:37:45.449Z,8.50
2017-07-19T20:40:13.790Z,11.87
2017-07-19T20:42:41.305Z,15.37
2017-07-19T20:45:08.825Z,11.43
2017-07-19T20:47:36.336Z,10.37
2017-07-19T20:50:03.881Z,13.13
2017-07-19T20:52:31.418Z,16.73
2017-07-19T20:55:00.110Z,11.13
2017-07-19T20:57:28.370Z,14.80
2017-07-19T20:59:55.898Z,10.33
2017-07-19T21:02:24.408Z,10.37
2017-07-19T21:04:51.903Z,7.00
2017-07-19T21:07:19.396Z,21.07
2017-07-19T21:09:47.125Z,16.60
2017-07-19T21:12:14.600Z,8.00
2017-07-19T21:14:42.098Z,11.50
2017-07-19T21:17:09.602Z,9.30
2017-07-19T21:19:37.104Z,11.50
2017-07-19T21:22:04.624Z,10.40
2017-07-19T21:24:32.124Z,14.67
2017-07-19T21:26:59.615Z,11.13
2017-07-19T21:29:27.905Z,9.90
2017-07-19T21:31:56.183Z,14.63
2017-07-19T21:34:23.966Z,10.30
2017-07-19T21:36:51.479Z,14.27
2017-07-19T21:39:18.999Z,9.43
2017-07-19T21:41:46.547Z,11.20
2017-07-19T21:44:14.044Z,10.70
2017-07-19T21:46:41.655Z,11.53
2017-07-19T21:49:09.153Z,15.80
2017-07-19T21:51:36.646Z,29.30
2017-07-19T21:54:04.940Z,29.60
2017-07-19T21:56:33.225Z,11.50
2017-07-19T21:59:00.721Z,14.53
2017-07-19T22:01:28.251Z,11.17
2017-07-19T22:03:55.808Z,11.70
2017-07-19T22:06:23.302Z,8.63
2017-07-19T22:08:50.807Z,12.90
2017-07-19T22:11:19.075Z,10.57
2017-07-19T22:13:47.350Z,9.13
2017-07-19T22:16:15.624Z,12.73
2017-07-19T22:18:43.933Z,11.90
2017-07-19T22:21:11.507Z,16.90
2017-07-19T22:23:39.008Z,13.40
2017-07-19T22:26:06.826Z,16.27
2017-07-19T22:28:34.332Z,8.97
2017-07-19T22:31:01.829Z,11.63
2017-07-19T22:33:29.380Z,16.50
2017-07-19T22:35:57.684Z,20.70
2017-07-19T22:38:25.204Z,22.67
2017-07-19T22:40:53.483Z,16.13
2017-07-19T22:43:21.773Z,14.23
2017-07-19T22:45:50.047Z,8.73
2017-07-19T22:48:17.561Z,14.97
2017-07-19T22:50:45.078Z,11.47
2017-07-19T22:53:12.650Z,12.50
2017-07-19T22:55:40.180Z,7.23
2017-07-19T22:58:08.458Z,6.10
2017-07-19T23:00:36.787Z,7.60
2017-07-19T23:03:04.347Z,11.73
2017-07-19T23:05:31.854Z,5.27
2017-07-19T23:08:00.145Z,6.90
2017-07-19T23:10:27.730Z,9.00
2017-07-19T23:12:55.220Z,7.30
2017-07-19T23:15:22.734Z,17.47
2017-07-19T23:17:50.277Z,10.90
2017-07-19T23:20:17.761Z,5.53
2017-07-19T23:22:45.315Z,6.37
2017-07-19T23:25:12.807Z,6.33
2017-07-19T23:27:40.339Z,7.33
2017-07-19T23:30:07.824Z,5.30
2017-07-19T23:32:35.353Z,8.63
2017-07-19T23:35:02.844Z,6.53
2017-07-19T23:37:30.382Z,4.43
2017-07-19T23:39:57.870Z,8.13
2017-07-19T23:42:25.503Z,5.33
2017-07-19T23:44:52.996Z,3.53
2017-07-19T23:47:20.492Z,8.77
2017-07-19T23:49:47.979Z,10.27
2017-07-19T23:52:15.507Z,4.17
2017-07-19T23:54:43.089Z,6.07
2017-07-19T23:57:10.672Z,5.40
2017-07-19T23:59:38.143Z,8.43
